sensor_id;sensor_type;location;lat;lon;timestamp;P1;durP1;ratioP1;P2;durP2;ratioP2
47153;SDS011;32907;41.412;2.164;2023-02-19T00:02:03;20.48;;;15.43;;
47153;SDS011;32907;41.412;2.164;2023-02-19T00:04:31;23.15;;;14.57;;
47153;SDS011;32907;41.412;2.164;2023-02-19T00:06:59;19.88;;;14.18;;
47153;SDS011;32907;41.412;2.164;2023-02-19T00:09:27;21.33;;;14.52;;
47153;SDS011;32907;41.412;2.164;2023-02-19T00:11:55;21.42;;;15.48;;
47153;SDS011;32907;41.412;2.164;2023-02-19T00:14:23;22.27;;;15.02;;
47153;SDS011;32907;41.412;2.164;2023-02-19T00:16:51;19.58;;;14.43;;
47153;SDS011;32907;41.412;2.164;2023-02-19T00:19:23;19.13;;;13.35;;
47153;SDS011;32907;41.412;2.164;2023-02-19T00:21:51;16.58;;;12.88;;
47153;SDS011;32907;41.412;2.164;2023-02-19T00:24:21;21.27;;;13.88;;
47153;SDS011;32907;41.412;2.164;2023-02-19T00:26:49;16.92;;;12.98;;
47153;SDS011;32907;41.412;2.164;2023-02-19T00:29:18;16.17;;;12.68;;
47153;SDS011;32907;41.412;2.164;2023-02-19T00:31:48;19.35;;;14.13;;
47153;SDS011;32907;41.412;2.164;2023-02-19T00:34:16;21.77;;;14.35;;
47153;SDS011;32907;41.412;2.164;2023-02-19T00:36:45;18.10;;;13.75;;
47153;SDS011;32907;41.412;2.164;2023-02-19T00:39:14;17.30;;;13.43;;
47153;SDS011;32907;41.412;2.164;2023-02-19T00:41:46;19.38;;;13.85;;
47153;SDS011;32907;41.412;2.164;2023-02-19T00:44:14;22.45;;;15.63;;
47153;SDS011;32907;41.412;2.164;2023-02-19T00:46:48;20.42;;;14.23;;
47153;SDS011;32907;41.412;2.164;2023-02-19T00:49:17;19.25;;;13.60;;
47153;SDS011;32907;41.412;2.164;2023-02-19T00:51:48;16.67;;;12.80;;
47153;SDS011;32907;41.412;2.164;2023-02-19T00:54:19;18.90;;;13.55;;
47153;SDS011;32907;41.412;2.164;2023-02-19T00:56:50;17.55;;;12.48;;
47153;SDS011;32907;41.412;2.164;2023-02-19T00:59:18;16.40;;;13.07;;
47153;SDS011;32907;41.412;2.164;2023-02-19T01:01:46;16.95;;;13.05;;
47153;SDS011;32907;41.412;2.164;2023-02-19T01:04:16;21.50;;;13.57;;
47153;SDS011;32907;41.412;2.164;2023-02-19T01:06:46;18.80;;;12.45;;
47153;SDS011;32907;41.412;2.164;2023-02-19T01:09:18;17.45;;;12.52;;
47153;SDS011;32907;41.412;2.164;2023-02-19T01:11:46;18.23;;;14.05;;
47153;SDS011;32907;41.412;2.164;2023-02-19T01:14:14;17.98;;;13.40;;
47153;SDS011;32907;41.412;2.164;2023-02-19T01:16:42;20.10;;;13.90;;
47153;SDS011;32907;41.412;2.164;2023-02-19T01:19:10;17.52;;;13.73;;
47153;SDS011;32907;41.412;2.164;2023-02-19T01:21:39;20.23;;;14.10;;
47153;SDS011;32907;41.412;2.164;2023-02-19T01:24:08;20.73;;;12.93;;
47153;SDS011;32907;41.412;2.164;2023-02-19T01:26:36;22.20;;;14.45;;
47153;SDS011;32907;41.412;2.164;2023-02-19T01:29:05;18.10;;;13.60;;
47153;SDS011;32907;41.412;2.164;2023-02-19T01:31:33;18.42;;;13.45;;
47153;SDS011;32907;41.412;2.164;2023-02-19T01:34:02;17.30;;;12.25;;
47153;SDS011;32907;41.412;2.164;2023-02-19T01:36:32;18.25;;;12.75;;
47153;SDS011;32907;41.412;2.164;2023-02-19T01:39:02;18.30;;;12.90;;
47153;SDS011;32907;41.412;2.164;2023-02-19T01:41:35;17.40;;;12.13;;
47153;SDS011;32907;41.412;2.164;2023-02-19T01:44:07;16.45;;;11.68;;
47153;SDS011;32907;41.412;2.164;2023-02-19T01:46:55;18.90;;;12.95;;
47153;SDS011;32907;41.412;2.164;2023-02-19T01:49:29;16.67;;;12.85;;
47153;SDS011;32907;41.412;2.164;2023-02-19T01:52:09;16.70;;;12.63;;
47153;SDS011;32907;41.412;2.164;2023-02-19T01:54:55;16.38;;;12.18;;
47153;SDS011;32907;41.412;2.164;2023-02-19T01:57:25;17.08;;;13.20;;
47153;SDS011;32907;41.412;2.164;2023-02-19T01:59:57;15.88;;;12.90;;
47153;SDS011;32907;41.412;2.164;2023-02-19T02:02:38;18.88;;;13.63;;
47153;SDS011;32907;41.412;2.164;2023-02-19T02:05:09;17.05;;;12.55;;
47153;SDS011;32907;41.412;2.164;2023-02-19T02:07:46;17.75;;;12.15;;
47153;SDS011;32907;41.412;2.164;2023-02-19T02:10:33;20.90;;;12.82;;
47153;SDS011;32907;41.412;2.164;2023-02-19T02:13:01;17.23;;;11.52;;
47153;SDS011;32907;41.412;2.164;2023-02-19T02:15:35;16.10;;;12.10;;
47153;SDS011;32907;41.412;2.164;2023-02-19T02:18:23;17.67;;;12.25;;
47153;SDS011;32907;41.412;2.164;2023-02-19T02:30:11;17.08;;;12.18;;
47153;SDS011;32907;41.412;2.164;2023-02-19T02:32:23;17.40;;;12.40;;
47153;SDS011;32907;41.412;2.164;2023-02-19T02:34:57;16.48;;;11.55;;
47153;SDS011;32907;41.412;2.164;2023-02-19T02:37:31;16.27;;;10.88;;
47153;SDS011;32907;41.412;2.164;2023-02-19T02:40:03;14.98;;;11.10;;
47153;SDS011;32907;41.412;2.164;2023-02-19T02:42:37;12.77;;;10.30;;
47153;SDS011;32907;41.412;2.164;2023-02-19T02:56:56;16.60;;;10.15;;
47153;SDS011;32907;41.412;2.164;2023-02-19T02:59:30;13.93;;;9.80;;
47153;SDS011;32907;41.412;2.164;2023-02-19T03:02:12;17.33;;;9.40;;
47153;SDS011;32907;41.412;2.164;2023-02-19T03:10:27;12.15;;;9.52;;
47153;SDS011;32907;41.412;2.164;2023-02-19T03:13:02;13.73;;;9.32;;
47153;SDS011;32907;41.412;2.164;2023-02-19T03:15:55;16.02;;;9.45;;
47153;SDS011;32907;41.412;2.164;2023-02-19T03:18:47;14.52;;;9.93;;
47153;SDS011;32907;41.412;2.164;2023-02-19T03:21:39;14.07;;;9.60;;
47153;SDS011;32907;41.412;2.164;2023-02-19T03:24:11;16.48;;;10.70;;
47153;SDS011;32907;41.412;2.164;2023-02-19T03:26:59;15.30;;;10.05;;
47153;SDS011;32907;41.412;2.164;2023-02-19T03:29:37;15.27;;;10.30;;
47153;SDS011;32907;41.412;2.164;2023-02-19T03:32:10;13.52;;;9.48;;
47153;SDS011;32907;41.412;2.164;2023-02-19T03:34:51;14.02;;;10.20;;
47153;SDS011;32907;41.412;2.164;2023-02-19T03:37:29;14.18;;;9.98;;
47153;SDS011;32907;41.412;2.164;2023-02-19T03:40:05;13.13;;;9.20;;
47153;SDS011;32907;41.412;2.164;2023-02-19T03:45:29;15.40;;;8.98;;
47153;SDS011;32907;41.412;2.164;2023-02-19T04:01:36;13.00;;;9.02;;
47153;SDS011;32907;41.412;2.164;2023-02-19T04:04:15;15.68;;;8.90;;
47153;SDS011;32907;41.412;2.164;2023-02-19T04:06:48;11.70;;;8.02;;
47153;SDS011;32907;41.412;2.164;2023-02-19T04:09:22;14.40;;;8.52;;
47153;SDS011;32907;41.412;2.164;2023-02-19T04:12:01;12.73;;;8.48;;
47153;SDS011;32907;41.412;2.164;2023-02-19T04:17:05;12.82;;;8.38;;
47153;SDS011;32907;41.412;2.164;2023-02-19T04:19:38;13.93;;;9.05;;
47153;SDS011;32907;41.412;2.164;2023-02-19T04:22:08;12.82;;;8.60;;
47153;SDS011;32907;41.412;2.164;2023-02-19T04:24:42;15.20;;;9.55;;
47153;SDS011;32907;41.412;2.164;2023-02-19T04:27:17;12.90;;;9.23;;
47153;SDS011;32907;41.412;2.164;2023-02-19T04:29:46;15.07;;;9.40;;
47153;SDS011;32907;41.412;2.164;2023-02-19T04:32:14;12.07;;;9.68;;
47153;SDS011;32907;41.412;2.164;2023-02-19T04:34:42;13.60;;;9.35;;
47153;SDS011;32907;41.412;2.164;2023-02-19T04:37:10;12.77;;;8.48;;
47153;SDS011;32907;41.412;2.164;2023-02-19T04:39:38;13.40;;;8.85;;
47153;SDS011;32907;41.412;2.164;2023-02-19T04:42:06;13.32;;;9.20;;
47153;SDS011;32907;41.412;2.164;2023-02-19T04:44:34;12.02;;;9.38;;
47153;SDS011;32907;41.412;2.164;2023-02-19T04:47:03;13.23;;;9.55;;
47153;SDS011;32907;41.412;2.164;2023-02-19T04:49:32;13.82;;;8.45;;
47153;SDS011;32907;41.412;2.164;2023-02-19T04:52:00;11.20;;;8.43;;
47153;SDS011;32907;41.412;2.164;2023-02-19T04:54:30;13.63;;;9.27;;
47153;SDS011;32907;41.412;2.164;2023-02-19T04:56:59;15.00;;;9.13;;
47153;SDS011;32907;41.412;2.164;2023-02-19T04:59:27;13.43;;;9.07;;
47153;SDS011;32907;41.412;2.164;2023-02-19T05:01:55;12.75;;;8.70;;
47153;SDS011;32907;41.412;2.164;2023-02-19T05:04:24;16.88;;;9.93;;
47153;SDS011;32907;41.412;2.164;2023-02-19T05:06:52;12.02;;;9.10;;
47153;SDS011;32907;41.412;2.164;2023-02-19T05:09:20;11.52;;;9.32;;
47153;SDS011;32907;41.412;2.164;2023-02-19T05:11:51;15.30;;;10.35;;
47153;SDS011;32907;41.412;2.164;2023-02-19T05:14:19;12.05;;;9.93;;
47153;SDS011;32907;41.412;2.164;2023-02-19T05:16:46;13.32;;;10.20;;
47153;SDS011;32907;41.412;2.164;2023-02-19T05:19:15;13.65;;;9.95;;
47153;SDS011;32907;41.412;2.164;2023-02-19T05:21:43;15.52;;;10.38;;
47153;SDS011;32907;41.412;2.164;2023-02-19T05:24:11;13.43;;;9.82;;
47153;SDS011;32907;41.412;2.164;2023-02-19T05:26:39;14.40;;;10.13;;
47153;SDS011;32907;41.412;2.164;2023-02-19T05:29:08;12.63;;;10.02;;
47153;SDS011;32907;41.412;2.164;2023-02-19T05:31:36;13.18;;;9.45;;
47153;SDS011;32907;41.412;2.164;2023-02-19T05:34:06;15.07;;;9.20;;
47153;SDS011;32907;41.412;2.164;2023-02-19T05:36:34;15.38;;;9.23;;
47153;SDS011;32907;41.412;2.164;2023-02-19T05:39:03;14.88;;;10.15;;
47153;SDS011;32907;41.412;2.164;2023-02-19T05:41:32;11.63;;;9.40;;
47153;SDS011;32907;41.412;2.164;2023-02-19T05:44:00;14.25;;;9.60;;
47153;SDS011;32907;41.412;2.164;2023-02-19T05:46:28;14.38;;;9.57;;
47153;SDS011;32907;41.412;2.164;2023-02-19T05:48:57;15.85;;;9.80;;
47153;SDS011;32907;41.412;2.164;2023-02-19T05:51:28;12.30;;;9.45;;
47153;SDS011;32907;41.412;2.164;2023-02-19T05:53:57;12.88;;;9.13;;
47153;SDS011;32907;41.412;2.164;2023-02-19T05:56:32;15.52;;;9.77;;
47153;SDS011;32907;41.412;2.164;2023-02-19T05:59:03;13.15;;;9.10;;
47153;SDS011;32907;41.412;2.164;2023-02-19T06:01:34;15.80;;;9.95;;
47153;SDS011;32907;41.412;2.164;2023-02-19T06:04:03;14.20;;;10.50;;
47153;SDS011;32907;41.412;2.164;2023-02-19T06:06:33;15.70;;;10.57;;
47153;SDS011;32907;41.412;2.164;2023-02-19T06:09:01;16.80;;;12.10;;
47153;SDS011;32907;41.412;2.164;2023-02-19T06:11:29;16.92;;;12.10;;
47153;SDS011;32907;41.412;2.164;2023-02-19T06:13:57;20.63;;;12.57;;
47153;SDS011;32907;41.412;2.164;2023-02-19T06:16:26;17.48;;;11.25;;
47153;SDS011;32907;41.412;2.164;2023-02-19T06:18:57;16.92;;;11.88;;
47153;SDS011;32907;41.412;2.164;2023-02-19T06:21:25;15.68;;;11.00;;
47153;SDS011;32907;41.412;2.164;2023-02-19T06:23:53;14.93;;;10.73;;
47153;SDS011;32907;41.412;2.164;2023-02-19T06:26:21;14.27;;;10.52;;
47153;SDS011;32907;41.412;2.164;2023-02-19T06:28:52;14.45;;;11.05;;
47153;SDS011;32907;41.412;2.164;2023-02-19T06:31:21;18.48;;;11.18;;
47153;SDS011;32907;41.412;2.164;2023-02-19T06:33:50;14.60;;;10.55;;
47153;SDS011;32907;41.412;2.164;2023-02-19T06:36:19;14.38;;;9.40;;
47153;SDS011;32907;41.412;2.164;2023-02-19T06:38:48;12.25;;;9.40;;
47153;SDS011;32907;41.412;2.164;2023-02-19T06:41:16;12.25;;;9.13;;
47153;SDS011;32907;41.412;2.164;2023-02-19T06:43:45;13.20;;;9.40;;
47153;SDS011;32907;41.412;2.164;2023-02-19T06:46:13;12.35;;;9.23;;
47153;SDS011;32907;41.412;2.164;2023-02-19T06:48:42;13.45;;;10.02;;
47153;SDS011;32907;41.412;2.164;2023-02-19T06:51:12;13.68;;;9.48;;
47153;SDS011;32907;41.412;2.164;2023-02-19T06:53:44;15.60;;;10.10;;
47153;SDS011;32907;41.412;2.164;2023-02-19T06:56:20;14.57;;;10.18;;
47153;SDS011;32907;41.412;2.164;2023-02-19T06:58:58;15.52;;;10.70;;
47153;SDS011;32907;41.412;2.164;2023-02-19T07:01:29;17.17;;;10.43;;
47153;SDS011;32907;41.412;2.164;2023-02-19T07:03:58;15.27;;;9.93;;
47153;SDS011;32907;41.412;2.164;2023-02-19T07:06:28;14.75;;;10.13;;
47153;SDS011;32907;41.412;2.164;2023-02-19T07:08:56;12.10;;;9.85;;
47153;SDS011;32907;41.412;2.164;2023-02-19T07:11:26;14.90;;;9.13;;
47153;SDS011;32907;41.412;2.164;2023-02-19T07:13:58;16.38;;;10.13;;
47153;SDS011;32907;41.412;2.164;2023-02-19T07:16:30;15.90;;;9.77;;
47153;SDS011;32907;41.412;2.164;2023-02-19T07:18:58;17.23;;;10.30;;
47153;SDS011;32907;41.412;2.164;2023-02-19T07:21:27;14.68;;;10.13;;
47153;SDS011;32907;41.412;2.164;2023-02-19T07:23:56;15.43;;;10.07;;
47153;SDS011;32907;41.412;2.164;2023-02-19T07:26:24;13.38;;;9.52;;
47153;SDS011;32907;41.412;2.164;2023-02-19T07:28:53;12.73;;;9.43;;
47153;SDS011;32907;41.412;2.164;2023-02-19T07:31:22;15.20;;;10.85;;
47153;SDS011;32907;41.412;2.164;2023-02-19T07:33:51;15.48;;;10.60;;
47153;SDS011;32907;41.412;2.164;2023-02-19T07:36:19;12.98;;;9.73;;
47153;SDS011;32907;41.412;2.164;2023-02-19T07:38:53;14.30;;;10.88;;
47153;SDS011;32907;41.412;2.164;2023-02-19T07:41:25;15.20;;;11.30;;
47153;SDS011;32907;41.412;2.164;2023-02-19T07:43:56;15.60;;;10.45;;
47153;SDS011;32907;41.412;2.164;2023-02-19T07:46:25;16.10;;;10.50;;
47153;SDS011;32907;41.412;2.164;2023-02-19T07:48:54;16.67;;;10.52;;
47153;SDS011;32907;41.412;2.164;2023-02-19T07:51:22;14.77;;;11.85;;
47153;SDS011;32907;41.412;2.164;2023-02-19T07:53:50;19.33;;;11.88;;
47153;SDS011;32907;41.412;2.164;2023-02-19T07:56:19;17.63;;;11.27;;
47153;SDS011;32907;41.412;2.164;2023-02-19T07:58:48;16.20;;;11.07;;
47153;SDS011;32907;41.412;2.164;2023-02-19T08:01:18;16.70;;;12.13;;
47153;SDS011;32907;41.412;2.164;2023-02-19T08:04:07;16.50;;;12.93;;
47153;SDS011;32907;41.412;2.164;2023-02-19T08:06:36;15.43;;;12.00;;
47153;SDS011;32907;41.412;2.164;2023-02-19T08:09:05;19.33;;;11.95;;
47153;SDS011;32907;41.412;2.164;2023-02-19T08:11:33;17.20;;;11.75;;
47153;SDS011;32907;41.412;2.164;2023-02-19T08:14:26;16.10;;;12.45;;
47153;SDS011;32907;41.412;2.164;2023-02-19T08:16:56;15.82;;;11.57;;
47153;SDS011;32907;41.412;2.164;2023-02-19T08:19:25;13.13;;;10.77;;
47153;SDS011;32907;41.412;2.164;2023-02-19T08:21:55;17.77;;;10.95;;
47153;SDS011;32907;41.412;2.164;2023-02-19T08:24:23;19.05;;;11.32;;
47153;SDS011;32907;41.412;2.164;2023-02-19T08:26:51;16.13;;;11.18;;
47153;SDS011;32907;41.412;2.164;2023-02-19T08:29:19;16.02;;;11.88;;
47153;SDS011;32907;41.412;2.164;2023-02-19T08:31:48;14.43;;;10.93;;
47153;SDS011;32907;41.412;2.164;2023-02-19T08:34:17;16.20;;;11.40;;
47153;SDS011;32907;41.412;2.164;2023-02-19T08:36:45;20.58;;;11.88;;
47153;SDS011;32907;41.412;2.164;2023-02-19T08:39:14;15.15;;;11.63;;
47153;SDS011;32907;41.412;2.164;2023-02-19T08:41:45;17.02;;;12.52;;
47153;SDS011;32907;41.412;2.164;2023-02-19T08:44:14;16.00;;;12.27;;
47153;SDS011;32907;41.412;2.164;2023-02-19T08:46:42;18.55;;;13.60;;
47153;SDS011;32907;41.412;2.164;2023-02-19T08:49:10;23.08;;;15.18;;
47153;SDS011;32907;41.412;2.164;2023-02-19T08:51:38;19.85;;;14.95;;
47153;SDS011;32907;41.412;2.164;2023-02-19T08:54:06;17.52;;;14.02;;
47153;SDS011;32907;41.412;2.164;2023-02-19T08:56:34;17.10;;;12.90;;
47153;SDS011;32907;41.412;2.164;2023-02-19T08:59:03;21.30;;;12.85;;
47153;SDS011;32907;41.412;2.164;2023-02-19T09:01:31;17.10;;;12.90;;
47153;SDS011;32907;41.412;2.164;2023-02-19T09:03:59;22.98;;;13.35;;
47153;SDS011;32907;41.412;2.164;2023-02-19T09:06:28;20.02;;;14.35;;
47153;SDS011;32907;41.412;2.164;2023-02-19T09:08:56;20.27;;;14.30;;
47153;SDS011;32907;41.412;2.164;2023-02-19T09:11:24;20.77;;;15.95;;
47153;SDS011;32907;41.412;2.164;2023-02-19T09:13:54;29.30;;;19.98;;
47153;SDS011;32907;41.412;2.164;2023-02-19T09:16:23;27.90;;;21.13;;
47153;SDS011;32907;41.412;2.164;2023-02-19T09:18:51;32.42;;;18.77;;
47153;SDS011;32907;41.412;2.164;2023-02-19T09:21:20;22.38;;;16.95;;
47153;SDS011;32907;41.412;2.164;2023-02-19T09:23:48;24.40;;;17.02;;
47153;SDS011;32907;41.412;2.164;2023-02-19T09:26:16;21.08;;;16.35;;
47153;SDS011;32907;41.412;2.164;2023-02-19T09:28:45;23.25;;;16.00;;
47153;SDS011;32907;41.412;2.164;2023-02-19T09:31:14;25.67;;;18.33;;
47153;SDS011;32907;41.412;2.164;2023-02-19T09:33:43;24.05;;;18.65;;
47153;SDS011;32907;41.412;2.164;2023-02-19T09:36:13;24.55;;;18.80;;
47153;SDS011;32907;41.412;2.164;2023-02-19T09:38:42;26.45;;;18.52;;
47153;SDS011;32907;41.412;2.164;2023-02-19T09:41:21;22.95;;;16.80;;
47153;SDS011;32907;41.412;2.164;2023-02-19T09:43:59;24.80;;;16.50;;
47153;SDS011;32907;41.412;2.164;2023-02-19T09:46:30;24.13;;;18.05;;
47153;SDS011;32907;41.412;2.164;2023-02-19T09:49:16;20.88;;;15.35;;
47153;SDS011;32907;41.412;2.164;2023-02-19T09:51:48;19.75;;;15.25;;
47153;SDS011;32907;41.412;2.164;2023-02-19T09:54:21;20.83;;;16.10;;
47153;SDS011;32907;41.412;2.164;2023-02-19T09:56:56;20.98;;;14.73;;
47153;SDS011;32907;41.412;2.164;2023-02-19T09:59:28;20.55;;;14.55;;
47153;SDS011;32907;41.412;2.164;2023-02-19T10:02:02;22.92;;;14.95;;
47153;SDS011;32907;41.412;2.164;2023-02-19T10:04:38;21.30;;;14.57;;
47153;SDS011;32907;41.412;2.164;2023-02-19T10:07:12;24.38;;;16.05;;
47153;SDS011;32907;41.412;2.164;2023-02-19T10:09:45;26.98;;;18.30;;
47153;SDS011;32907;41.412;2.164;2023-02-19T10:12:22;26.38;;;18.15;;
47153;SDS011;32907;41.412;2.164;2023-02-19T10:15:00;21.83;;;15.88;;
47153;SDS011;32907;41.412;2.164;2023-02-19T10:17:52;24.73;;;17.92;;
47153;SDS011;32907;41.412;2.164;2023-02-19T10:20:20;24.23;;;17.90;;
47153;SDS011;32907;41.412;2.164;2023-02-19T10:22:52;25.50;;;18.17;;
47153;SDS011;32907;41.412;2.164;2023-02-19T10:25:27;28.35;;;17.73;;
47153;SDS011;32907;41.412;2.164;2023-02-19T10:27:57;28.48;;;17.65;;
47153;SDS011;32907;41.412;2.164;2023-02-19T10:30:29;22.27;;;17.20;;
47153;SDS011;32907;41.412;2.164;2023-02-19T10:33:02;23.92;;;16.15;;
47153;SDS011;32907;41.412;2.164;2023-02-19T10:38:27;24.80;;;17.33;;
47153;SDS011;32907;41.412;2.164;2023-02-19T10:43:29;23.65;;;16.92;;
47153;SDS011;32907;41.412;2.164;2023-02-19T10:46:05;21.02;;;17.60;;
47153;SDS011;32907;41.412;2.164;2023-02-19T10:49:00;25.38;;;19.35;;
47153;SDS011;32907;41.412;2.164;2023-02-19T10:51:35;24.75;;;19.52;;
47153;SDS011;32907;41.412;2.164;2023-02-19T10:56:53;26.08;;;20.23;;
47153;SDS011;32907;41.412;2.164;2023-02-19T10:59:24;25.77;;;20.02;;
47153;SDS011;32907;41.412;2.164;2023-02-19T11:02:03;23.50;;;19.45;;
47153;SDS011;32907;41.412;2.164;2023-02-19T11:05:19;27.27;;;19.98;;
47153;SDS011;32907;41.412;2.164;2023-02-19T11:07:45;24.98;;;19.48;;
47153;SDS011;32907;41.412;2.164;2023-02-19T11:10:24;24.50;;;18.23;;
47153;SDS011;32907;41.412;2.164;2023-02-19T11:13:03;22.90;;;18.63;;
47153;SDS011;32907;41.412;2.164;2023-02-19T11:15:34;27.38;;;18.30;;
47153;SDS011;32907;41.412;2.164;2023-02-19T11:18:04;27.40;;;18.02;;
47153;SDS011;32907;41.412;2.164;2023-02-19T11:20:48;30.02;;;18.23;;
47153;SDS011;32907;41.412;2.164;2023-02-19T11:23:28;22.13;;;17.23;;
47153;SDS011;32907;41.412;2.164;2023-02-19T11:25:57;23.83;;;17.77;;
47153;SDS011;32907;41.412;2.164;2023-02-19T11:28:30;24.45;;;17.55;;
47153;SDS011;32907;41.412;2.164;2023-02-19T11:31:24;22.77;;;17.67;;
47153;SDS011;32907;41.412;2.164;2023-02-19T11:36:33;32.85;;;26.15;;
47153;SDS011;32907;41.412;2.164;2023-02-19T11:49:54;37.17;;;28.27;;
47153;SDS011;32907;41.412;2.164;2023-02-19T11:55:15;31.85;;;25.23;;
47153;SDS011;32907;41.412;2.164;2023-02-19T11:57:53;33.42;;;26.23;;
47153;SDS011;32907;41.412;2.164;2023-02-19T12:00:50;37.03;;;25.63;;
47153;SDS011;32907;41.412;2.164;2023-02-19T12:06:30;32.35;;;24.63;;
47153;SDS011;32907;41.412;2.164;2023-02-19T12:12:29;33.60;;;27.48;;
47153;SDS011;32907;41.412;2.164;2023-02-19T12:15:15;36.63;;;27.83;;
47153;SDS011;32907;41.412;2.164;2023-02-19T12:18:14;33.28;;;24.30;;
47153;SDS011;32907;41.412;2.164;2023-02-19T12:26:26;33.10;;;24.42;;
47153;SDS011;32907;41.412;2.164;2023-02-19T12:39:43;43.67;;;28.88;;
47153;SDS011;32907;41.412;2.164;2023-02-19T12:45:16;40.85;;;27.35;;
47153;SDS011;32907;41.412;2.164;2023-02-19T12:47:53;33.83;;;23.05;;
47153;SDS011;32907;41.412;2.164;2023-02-19T12:50:42;29.48;;;21.40;;
47153;SDS011;32907;41.412;2.164;2023-02-19T12:55:56;35.95;;;25.10;;
47153;SDS011;32907;41.412;2.164;2023-02-19T12:58:34;40.80;;;25.90;;
47153;SDS011;32907;41.412;2.164;2023-02-19T13:01:11;33.88;;;23.48;;
47153;SDS011;32907;41.412;2.164;2023-02-19T13:06:32;36.95;;;24.88;;
47153;SDS011;32907;41.412;2.164;2023-02-19T13:12:07;30.52;;;21.33;;
47153;SDS011;32907;41.412;2.164;2023-02-19T13:14:44;29.60;;;20.55;;
47153;SDS011;32907;41.412;2.164;2023-02-19T13:17:37;29.55;;;20.83;;
47153;SDS011;32907;41.412;2.164;2023-02-19T13:31:15;37.08;;;26.27;;
47153;SDS011;32907;41.412;2.164;2023-02-19T13:36:52;31.83;;;22.60;;
47153;SDS011;32907;41.412;2.164;2023-02-19T13:39:21;32.28;;;23.40;;
47153;SDS011;32907;41.412;2.164;2023-02-19T13:41:50;31.85;;;24.75;;
47153;SDS011;32907;41.412;2.164;2023-02-19T13:44:23;33.83;;;25.55;;
47153;SDS011;32907;41.412;2.164;2023-02-19T13:46:56;29.83;;;23.85;;
47153;SDS011;32907;41.412;2.164;2023-02-19T13:51:59;25.27;;;20.58;;
47153;SDS011;32907;41.412;2.164;2023-02-19T13:54:29;27.33;;;21.52;;
47153;SDS011;32907;41.412;2.164;2023-02-19T13:59:45;32.90;;;25.70;;
47153;SDS011;32907;41.412;2.164;2023-02-19T14:09:53;31.42;;;25.52;;
47153;SDS011;32907;41.412;2.164;2023-02-19T14:12:21;28.73;;;22.73;;
47153;SDS011;32907;41.412;2.164;2023-02-19T14:14:57;32.45;;;23.17;;
47153;SDS011;32907;41.412;2.164;2023-02-19T14:18:39;30.73;;;23.38;;
47153;SDS011;32907;41.412;2.164;2023-02-19T14:21:16;26.50;;;22.00;;
47153;SDS011;32907;41.412;2.164;2023-02-19T14:23:53;23.10;;;19.17;;
47153;SDS011;32907;41.412;2.164;2023-02-19T14:26:24;39.50;;;24.58;;
47153;SDS011;32907;41.412;2.164;2023-02-19T14:28:53;31.13;;;23.00;;
47153;SDS011;32907;41.412;2.164;2023-02-19T14:31:28;32.83;;;21.25;;
47153;SDS011;32907;41.412;2.164;2023-02-19T14:34:16;32.63;;;20.35;;
47153;SDS011;32907;41.412;2.164;2023-02-19T14:36:50;25.00;;;18.38;;
47153;SDS011;32907;41.412;2.164;2023-02-19T14:41:56;27.70;;;20.42;;
47153;SDS011;32907;41.412;2.164;2023-02-19T14:44:30;26.13;;;17.48;;
47153;SDS011;32907;41.412;2.164;2023-02-19T14:47:04;25.77;;;17.83;;
47153;SDS011;32907;41.412;2.164;2023-02-19T14:49:48;22.35;;;16.77;;
47153;SDS011;32907;41.412;2.164;2023-02-19T14:52:23;20.05;;;15.85;;
47153;SDS011;32907;41.412;2.164;2023-02-19T14:54:57;22.95;;;16.90;;
47153;SDS011;32907;41.412;2.164;2023-02-19T14:57:29;19.30;;;15.68;;
47153;SDS011;32907;41.412;2.164;2023-02-19T15:02:56;19.55;;;14.18;;
47153;SDS011;32907;41.412;2.164;2023-02-19T15:05:36;17.10;;;13.25;;
47153;SDS011;32907;41.412;2.164;2023-02-19T15:08:08;17.77;;;14.13;;
47153;SDS011;32907;41.412;2.164;2023-02-19T15:10:44;19.33;;;15.73;;
47153;SDS011;32907;41.412;2.164;2023-02-19T15:13:15;17.00;;;12.88;;
47153;SDS011;32907;41.412;2.164;2023-02-19T15:15:54;16.15;;;13.23;;
47153;SDS011;32907;41.412;2.164;2023-02-19T15:18:25;20.60;;;13.77;;
47153;SDS011;32907;41.412;2.164;2023-02-19T15:21:00;20.90;;;15.02;;
47153;SDS011;32907;41.412;2.164;2023-02-19T15:23:34;19.67;;;15.00;;
47153;SDS011;32907;41.412;2.164;2023-02-19T15:26:04;19.50;;;14.27;;
47153;SDS011;32907;41.412;2.164;2023-02-19T15:28:58;17.25;;;14.23;;
47153;SDS011;32907;41.412;2.164;2023-02-19T15:31:30;16.20;;;12.87;;
47153;SDS011;32907;41.412;2.164;2023-02-19T15:34:00;16.77;;;12.65;;
47153;SDS011;32907;41.412;2.164;2023-02-19T15:36:29;18.17;;;13.20;;
47153;SDS011;32907;41.412;2.164;2023-02-19T15:39:01;15.68;;;12.45;;
47153;SDS011;32907;41.412;2.164;2023-02-19T15:41:33;19.25;;;12.57;;
47153;SDS011;32907;41.412;2.164;2023-02-19T15:44:09;17.17;;;11.52;;
47153;SDS011;32907;41.412;2.164;2023-02-19T15:46:57;19.45;;;13.70;;
47153;SDS011;32907;41.412;2.164;2023-02-19T15:49:34;16.95;;;13.57;;
47153;SDS011;32907;41.412;2.164;2023-02-19T15:52:15;23.00;;;14.18;;
47153;SDS011;32907;41.412;2.164;2023-02-19T15:55:04;26.45;;;14.38;;
47153;SDS011;32907;41.412;2.164;2023-02-19T15:58:15;20.20;;;15.35;;
47153;SDS011;32907;41.412;2.164;2023-02-19T16:01:00;17.55;;;15.00;;
47153;SDS011;32907;41.412;2.164;2023-02-19T16:03:38;21.33;;;16.00;;
47153;SDS011;32907;41.412;2.164;2023-02-19T16:06:11;28.05;;;21.52;;
47153;SDS011;32907;41.412;2.164;2023-02-19T16:08:44;33.85;;;26.27;;
47153;SDS011;32907;41.412;2.164;2023-02-19T16:13:50;35.08;;;27.70;;
47153;SDS011;32907;41.412;2.164;2023-02-19T16:16:25;27.88;;;24.08;;
47153;SDS011;32907;41.412;2.164;2023-02-19T16:18:58;27.20;;;21.73;;
47153;SDS011;32907;41.412;2.164;2023-02-19T16:21:26;26.88;;;20.48;;
47153;SDS011;32907;41.412;2.164;2023-02-19T16:24:00;26.63;;;21.42;;
47153;SDS011;32907;41.412;2.164;2023-02-19T16:26:42;26.88;;;19.90;;
47153;SDS011;32907;41.412;2.164;2023-02-19T16:29:16;22.85;;;18.60;;
47153;SDS011;32907;41.412;2.164;2023-02-19T16:31:54;22.45;;;17.20;;
47153;SDS011;32907;41.412;2.164;2023-02-19T16:37:01;19.33;;;13.85;;
47153;SDS011;32907;41.412;2.164;2023-02-19T16:39:30;17.52;;;14.65;;
47153;SDS011;32907;41.412;2.164;2023-02-19T16:44:29;21.60;;;15.45;;
47153;SDS011;32907;41.412;2.164;2023-02-19T16:47:09;22.38;;;15.23;;
47153;SDS011;32907;41.412;2.164;2023-02-19T16:49:43;20.40;;;15.25;;
47153;SDS011;32907;41.412;2.164;2023-02-19T16:52:15;20.98;;;13.80;;
47153;SDS011;32907;41.412;2.164;2023-02-19T16:54:43;24.10;;;13.90;;
47153;SDS011;32907;41.412;2.164;2023-02-19T16:57:12;15.70;;;12.27;;
47153;SDS011;32907;41.412;2.164;2023-02-19T16:59:40;19.38;;;12.48;;
47153;SDS011;32907;41.412;2.164;2023-02-19T17:02:09;16.05;;;11.40;;
47153;SDS011;32907;41.412;2.164;2023-02-19T17:07:17;20.80;;;12.70;;
47153;SDS011;32907;41.412;2.164;2023-02-19T17:09:45;17.50;;;11.43;;
47153;SDS011;32907;41.412;2.164;2023-02-19T17:12:17;19.13;;;11.15;;
47153;SDS011;32907;41.412;2.164;2023-02-19T17:14:48;15.52;;;10.85;;
47153;SDS011;32907;41.412;2.164;2023-02-19T17:17:17;17.27;;;10.98;;
47153;SDS011;32907;41.412;2.164;2023-02-19T17:19:46;17.27;;;11.57;;
47153;SDS011;32907;41.412;2.164;2023-02-19T17:22:14;16.55;;;10.48;;
47153;SDS011;32907;41.412;2.164;2023-02-19T17:24:45;16.83;;;11.02;;